Latest Weather Observations for Esperance Airport

IDW60801

Issued at 12:33 pm WST Friday 18 August 2017 (issued every 30 minutes, with the page automatically refreshed every 10 minutes)

About weather observations | Map of weather stations | Latest weather observations for WA | Other Formats
Station Details ID: 009542 Name: ESPERANCE AERO Lat: -33.68 Lon: 121.83 Height: 142.0 m
Data from the previous 72 hours. | See also: Recent months at Esperance Airport
Date/Time
WST
Temp
°C
App
Temp
°C
Dew
Point
°C
Rel
Hum
%
Delta-T
°C
Wind Press
QNH
hPa
Press
MSL
hPa
Rain since
9am
mm
Dir  Spd
km/h
Gust
km/h
Spd
kts
Gust
kts
18/12:30pm 18.7 11.8 0.3 29 8.1 N 26 37 14 20 1019.8 1019.8 0.0
18/12:00pm 17.9 10.0 -1.3 27 8.1 N 30 39 16 21 1020.4 1020.4 0.0
18/11:30am 17.4 10.1 -0.3 30 7.6 N 28 37 15 20 1021.0 1021.0 0.0
18/11:00am 17.4 10.6 1.0 33 7.3 N 26 33 14 18 1021.5 1021.5 0.0
18/10:30am 15.8 8.6 0.8 36 6.5 N 28 37 15 20 1021.9 1022.0 0.0
18/10:00am 14.9 8.0 2.8 44 5.4 N 28 33 15 18 1022.0 1022.1 0.0
18/09:30am 13.2 6.9 1.5 45 5.1 N 24 33 13 18 1022.3 1022.4 0.0
18/09:00am 11.2 4.9 1.5 51 4.1 N 24 30 13 16 1022.5 1022.6 0.0
18/08:30am 9.5 4.0 1.7 58 3.3 N 20 28 11 15 1022.3 1022.4 0.0
18/08:00am 7.9 2.3 1.3 63 2.7 N 20 24 11 13 1022.0 1022.1 0.0
18/07:30am 6.2 0.6 0.1 65 2.4 NNE 19 26 10 14 1021.8 1021.9 0.0
18/07:00am 5.0 -0.8 -0.4 68 2.0 NNE 20 26 11 14 1021.4 1021.4 0.0
18/06:30am 4.2 -2.0 -0.4 72 1.7 NNE 22 28 12 15 1021.3 1021.3 0.0
18/06:00am 4.5 -1.2 0.3 74 1.6 NNE 20 28 11 15 1021.1 1021.1 0.0
18/05:30am 4.7 -0.8 0.8 76 1.5 NNE 19 24 10 13 1021.1 1021.1 0.0
18/05:00am 4.9 -0.4 1.6 79 1.3 NNE 19 26 10 14 1021.1 1021.1 0.0
18/04:30am 5.4 0.0 2.2 80 1.3 NNE 20 28 11 15 1021.0 1021.0 0.0
18/04:00am 5.4 0.2 2.4 81 1.2 NNE 19 28 10 15 1021.1 1021.1 0.0
18/03:30am 6.0 0.3 3.0 81 1.3 NNE 22 30 12 16 1021.0 1021.0 0.0
18/03:00am 5.9 0.8 3.2 83 1.1 NNE 19 24 10 13 1021.1 1021.1 0.0
18/02:30am 6.0 0.9 3.0 81 1.3 NNE 19 24 10 13 1021.2 1021.2 0.0
18/02:00am 6.5 1.4 3.3 80 1.3 NNE 19 24 10 13 1021.0 1021.0 0.0
18/01:30am 6.5 1.9 3.8 83 1.2 NNE 17 24 9 13 1021.3 1021.3 0.0
18/01:00am 6.6 2.0 3.6 81 1.3 NNE 17 24 9 13 1021.4 1021.4 0.0
18/12:30am 7.0 2.0 3.6 79 1.5 NNE 19 24 10 13 1021.1 1021.1 0.0
18/12:00am 6.8 2.1 3.4 79 1.4 NNE 17 20 9 11 1021.2 1021.2 0.0
 
Date/Time
WST
Temp
°C
App
Temp
°C
Dew
Point
°C
Rel
Hum
%
Delta-T
°C
Wind Press
QNH
hPa
Press
MSL
hPa
Rain since
9am
mm
Dir  Spd
km/h
Gust
km/h
Spd
kts
Gust
kts
17/11:30pm 7.2 2.6 3.8 79 1.5 NNE 17 20 9 11 1021.1 1021.1 0.0
17/11:00pm 7.0 3.1 3.6 79 1.5 NNE 13 19 7 10 1021.1 1021.1 0.0
17/10:30pm 7.5 3.7 3.9 78 1.6 NNE 13 19 7 10 1021.1 1021.1 0.0
17/10:00pm 7.4 4.0 4.0 79 1.5 NE 11 15 6 8 1021.2 1021.2 0.0
17/09:30pm 7.1 3.7 3.9 80 1.4 NE 11 15 6 8 1021.3 1021.3 0.0
17/09:00pm 6.5 3.0 3.7 82 1.2 NE 11 13 6 7 1021.3 1021.3 0.0
17/08:30pm 7.1 4.0 3.5 78 1.5 NE 9 13 5 7 1021.2 1021.2 0.0
17/08:00pm 8.1 5.3 3.4 72 2.0 NE 7 9 4 5 1020.9 1020.9 0.0
17/07:30pm 9.5 6.5 4.1 69 2.4 ENE 9 11 5 6 1020.6 1020.6 0.0
17/07:00pm 9.7 6.7 4.3 69 2.4 E 9 11 5 6 1020.5 1020.5 0.0
17/06:30pm 10.0 7.1 4.6 69 2.4 ESE 9 11 5 6 1020.3 1020.3 0.0
17/06:00pm 9.8 6.9 4.4 69 2.4 SE 9 11 5 6 1020.2 1020.2 0.0
17/05:30pm 10.9 8.0 4.6 65 2.9 SSE 9 11 5 6 1019.9 1019.9 0.0
17/05:00pm 12.4 9.5 4.6 59 3.6 S 9 11 5 6 1019.5 1019.5 0.0
17/04:30pm 13.7 10.4 4.6 54 4.2 SSW 11 15 6 8 1019.3 1019.3 0.0
17/04:00pm 14.3 10.1 4.0 50 4.7 S 15 20 8 11 1019.1 1019.1 0.0
17/03:30pm 15.0 10.9 2.5 43 5.6 WSW 13 20 7 11 1019.2 1019.2 0.0
17/03:00pm 14.4 9.9 4.4 51 4.6 WSW 17 24 9 13 1019.3 1019.3 0.0
17/02:30pm 14.8 10.3 4.2 49 4.9 WSW 17 24 9 13 1019.1 1019.1 0.0
17/02:00pm 14.3 8.9 4.6 52 4.5 W 22 30 12 16 1019.0 1019.0 0.0
17/01:30pm 13.3 8.2 4.2 54 4.2 WSW 20 28 11 15 1019.1 1019.1 0.0
17/01:00pm 13.8 7.6 4.4 53 4.3 WSW 26 33 14 18 1019.2 1019.2 0.0
17/12:30pm 14.6 8.5 4.9 52 4.6 W 26 37 14 20 1019.4 1019.4 0.0
17/12:00pm 13.7 6.3 3.8 51 4.5 W 32 39 17 21 1019.7 1019.7 0.0
17/11:30am 14.3 8.3 5.1 54 4.3 W 26 33 14 18 1019.9 1019.9 0.0
17/11:00am 13.5 7.9 5.2 57 3.9 W 24 33 13 18 1020.1 1020.1 0.0
17/10:30am 12.5 6.0 4.5 58 3.7 W 28 37 15 20 1020.2 1020.2 0.0
17/10:00am 12.0 6.0 5.2 63 3.1 W 26 33 14 18 1020.0 1020.0 0.0
17/09:30am 10.9 4.0 4.4 64 2.9 W 30 39 16 21 1019.9 1019.9 0.0
17/09:00am 10.1 4.3 4.5 68 2.5 WNW 24 32 13 17 1019.8 1019.8 0.0
17/08:30am 8.8 2.1 3.8 71 2.2 W 28 35 15 19 1019.6 1019.6 0.0
17/08:00am 7.3 1.3 3.2 75 1.7 WNW 24 30 13 16 1019.2 1019.2 0.0
17/07:30am 5.7 0.0 2.7 81 1.2 WNW 22 30 12 16 1018.8 1018.8 0.0
17/07:00am 5.2 0.0 2.4 82 1.1 WNW 19 22 10 12 1018.5 1018.5 0.0
17/06:30am 5.1 -0.3 2.5 83 1.1 WNW 20 28 11 15 1018.2 1018.2 0.0
17/06:00am 4.6 -1.3 2.0 83 1.0 WNW 22 32 12 17 1017.7 1017.7 0.0
17/05:30am 4.7 -1.9 1.9 82 1.1 WNW 26 37 14 20 1017.1 1017.1 0.0
17/05:00am 4.9 -1.7 1.9 81 1.2 WNW 26 35 14 19 1016.9 1016.9 0.0
17/04:30am 5.0 -2.0 1.8 80 1.3 WNW 28 35 15 19 1016.6 1016.6 0.0
17/04:00am 4.8 -1.9 1.5 79 1.3 WNW 26 32 14 17 1016.5 1016.5 0.0
17/03:30am 5.0 -2.0 1.7 79 1.3 WNW 28 35 15 19 1016.2 1016.3 0.0
17/03:00am 5.2 -0.3 1.9 79 1.3 WNW 20 30 11 16 1016.2 1016.3 0.0
17/02:30am 5.6 0.0 1.3 74 1.7 WNW 20 28 11 15 1016.2 1016.3 0.0
17/02:00am 6.9 1.5 2.2 72 1.9 WNW 20 26 11 14 1016.2 1016.3 0.0
17/01:30am 6.9 0.3 2.2 72 1.9 WNW 26 33 14 18 1016.1 1016.2 0.0
17/01:00am 6.6 0.3 1.7 71 2.0 WNW 24 30 13 16 1015.9 1016.0 0.0
17/12:30am 7.5 0.5 2.2 69 2.2 W 28 33 15 18 1015.9 1016.0 0.0
17/12:00am 7.3 0.8 2.6 72 2.0 W 26 32 14 17 1015.6 1015.6 0.0
 
Date/Time
WST
Temp
°C
App
Temp
°C
Dew
Point
°C
Rel
Hum
%
Delta-T
°C
Wind Press
QNH
hPa
Press
MSL
hPa
Rain since
9am
mm
Dir  Spd
km/h
Gust
km/h
Spd
kts
Gust
kts
16/11:30pm 7.2 0.6 2.3 71 2.0 W 26 33 14 18 1015.4 1015.4 0.0
16/11:00pm 8.2 0.5 2.4 67 2.4 W 32 39 17 21 1015.8 1015.9 0.0
16/10:30pm 8.0 0.7 2.3 67 2.4 W 30 37 16 20 1015.7 1015.7 0.0
16/10:00pm 7.9 0.1 2.0 66 2.5 WNW 32 44 17 24 1015.5 1015.5 0.0
16/09:30pm 8.2 0.4 1.6 63 2.7 WNW 32 41 17 22 1015.6 1015.6 0.0
16/09:00pm 8.1 0.1 1.9 65 2.6 WNW 33 44 18 24 1015.4 1015.4 0.0
16/08:30pm 8.5 0.6 2.1 64 2.7 W 33 44 18 24 1015.2 1015.2 0.0
16/08:23pm 8.6 0.7 2.2 64 2.7 W 33 44 18 24 1015.2 1015.2 0.0
16/08:00pm 7.4 2.0 2.3 70 2.1 WNW 20 26 11 14 1015.2 1015.2 0.0
16/07:30pm 8.8 2.7 2.6 65 2.6 W 24 33 13 18 1015.0 1015.0 0.0
16/07:00pm 9.0 2.9 2.6 64 2.7 W 24 32 13 17 1014.6 1014.6 0.0
16/06:30pm 9.9 3.0 2.5 60 3.2 W 28 33 15 18 1014.2 1014.2 0.0
16/06:00pm 10.0 3.1 2.6 60 3.2 W 28 37 15 20 1013.7 1013.7 0.0
16/05:30pm 10.3 4.0 3.8 64 2.9 W 26 33 14 18 1013.3 1013.3 0.0
16/05:00pm 11.4 3.8 3.7 59 3.4 W 33 48 18 26 1013.0 1013.0 0.0
16/04:30pm 12.1 4.0 3.3 55 3.9 WSW 35 48 19 26 1012.5 1012.5 0.0
16/04:19pm 12.7 4.5 2.8 51 4.4 W 35 54 19 29 1012.4 1012.4 0.0
16/04:00pm 12.6 4.4 2.5 50 4.4 WSW 35 46 19 25 1012.5 1012.5 0.0
16/03:30pm 13.4 4.7 4.0 53 4.3 WSW 39 50 21 27 1012.1 1012.1 0.0
16/03:06pm 12.6 3.7 5.1 60 3.5 WSW 41 59 22 32 1012.0 1012.0 0.0
16/03:00pm 13.7 4.8 1.0 42 5.5 WSW 37 54 20 29 1011.9 1011.9 0.0
16/02:44pm 13.6 5.3 1.9 45 5.1 W 35 54 19 29 1011.8 1011.8 0.0
16/02:30pm 13.1 4.1 2.4 48 4.7 W 39 50 21 27 1011.6 1011.6 0.0
16/02:00pm 14.9 4.8 1.8 41 5.8 WSW 44 57 24 31 1011.4 1011.4 0.0
16/01:51pm 14.4 4.0 2.3 44 5.4 WSW 46 65 25 35 1011.5 1011.5 0.0
16/01:30pm 15.0 4.9 3.8 47 5.2 W 46 63 25 34 1011.4 1011.4 0.0
16/01:05pm 14.1 3.5 3.3 48 4.9 W 48 67 26 36 1011.4 1011.4 0.0
16/01:00pm 14.6 3.5 2.5 44 5.4 W 50 67 27 36 1011.3 1011.3 0.0
16/12:30pm 14.6 3.5 4.3 50 4.8 W 52 65 28 35 1011.5 1011.5 0.0
16/12:11pm 14.5 3.5 3.0 46 5.2 W 50 69 27 37 1011.7 1011.7 0.0
16/12:00pm 14.7 3.9 4.1 49 4.9 W 50 65 27 35 1011.7 1011.7 0.0
16/11:30am 14.3 3.4 3.7 49 4.9 W 50 69 27 37 1011.9 1011.9 0.0
16/11:00am 13.2 3.0 3.0 50 4.6 W 46 65 25 35 1012.1 1012.1 0.0
16/10:54am 12.9 2.6 2.5 49 4.6 W 46 65 25 35 1012.1 1012.1 0.0
16/10:30am 13.3 2.6 2.8 49 4.7 W 48 59 26 32 1012.0 1012.0 0.0
16/10:00am 12.5 2.8 3.7 55 4.0 W 44 61 24 33 1012.0 1012.0 0.0
16/09:30am 12.2 3.1 4.2 58 3.6 W 41 59 22 32 1012.0 1012.0 0.0
16/09:00am 11.4 2.8 4.8 64 3.0 WNW 39 52 21 28 1012.1 1012.1 0.0
16/08:30am 10.5 3.0 6.3 75 2.0 WNW 35 50 19 27 1012.1 1012.1 0.0
16/08:00am 9.6 1.8 6.5 81 1.5 WNW 37 50 20 27 1011.8 1011.8 0.0
16/07:30am 8.5 1.6 6.3 86 1.0 WNW 32 43 17 23 1011.7 1011.7 0.0
16/07:00am 7.5 1.2 5.6 88 0.9 WNW 28 35 15 19 1011.6 1011.6 0.0
16/06:30am 7.4 0.7 5.5 88 0.9 WNW 30 39 16 21 1011.3 1011.3 0.0
16/06:00am 7.3 0.9 5.4 88 0.9 WNW 28 37 15 20 1010.9 1010.9 0.0
16/05:30am 7.2 1.2 5.3 88 0.8 NW 26 33 14 18 1010.8 1010.8 0.0
16/05:00am 7.0 1.3 5.0 87 0.9 WNW 24 33 13 18 1010.8 1010.8 0.0
16/04:30am 7.3 0.5 5.0 85 1.0 WNW 30 35 16 19 1010.6 1010.6 0.0
16/04:00am 7.6 1.2 5.2 85 1.1 WNW 28 35 15 19 1010.4 1010.4 0.0
16/03:30am 7.4 0.6 5.2 86 1.0 WNW 30 35 16 19 1010.6 1010.6 0.0
16/03:00am 7.4 1.0 5.0 85 1.1 WNW 28 35 15 19 1010.8 1010.8 0.0
16/02:30am 7.6 0.8 5.1 84 1.1 WNW 30 39 16 21 1011.0 1011.0 0.0
16/02:00am 7.6 0.8 4.9 83 1.2 WNW 30 37 16 20 1011.2 1011.2 0.0
16/01:30am 8.0 0.8 4.8 80 1.4 WNW 32 46 17 25 1011.1 1011.1 0.0
16/01:00am 8.0 1.5 4.8 80 1.4 NW 28 35 15 19 1011.0 1011.0 0.0
16/12:30am 7.7 1.9 4.3 79 1.5 NW 24 35 13 19 1011.3 1011.3 0.0
16/12:00am 7.8 1.2 4.4 79 1.5 WNW 28 37 15 20 1011.6 1011.6 0.0
 
Date/Time
WST
Temp
°C
App
Temp
°C
Dew
Point
°C
Rel
Hum
%
Delta-T
°C
Wind Press
QNH
hPa
Press
MSL
hPa
Rain since
9am
mm
Dir  Spd
km/h
Gust
km/h
Spd
kts
Gust
kts
15/11:30pm 7.8 1.6 4.2 78 1.6 NW 26 33 14 18 1011.8 1011.8 0.0
15/11:00pm 8.2 2.4 4.4 77 1.7 NW 24 37 13 20 1012.0 1012.0 0.0
15/10:30pm 8.4 3.1 4.8 78 1.6 WNW 22 28 12 15 1012.4 1012.4 0.0
15/10:00pm 8.3 2.9 4.7 78 1.6 WNW 22 28 12 15 1012.6 1012.6 0.0
15/09:30pm 8.9 3.2 4.7 75 1.9 WNW 24 30 13 16 1012.8 1012.8 0.0
15/09:00pm 9.0 3.3 4.8 75 1.9 WNW 24 30 13 16 1012.9 1012.9 0.0
15/08:30pm 9.1 3.4 4.7 74 2.0 WNW 24 32 13 17 1012.8 1012.8 0.0
15/08:00pm 9.5 3.8 4.7 72 2.2 WNW 24 30 13 16 1012.7 1012.7 0.0
15/07:30pm 10.1 4.4 5.1 71 2.3 NW 24 32 13 17 1012.4 1012.4 0.0
15/07:00pm 9.4 4.8 5.4 76 1.8 WNW 19 24 10 13 1012.5 1012.5 0.0
15/06:30pm 9.3 4.9 4.5 72 2.1 WNW 17 19 9 10 1012.3 1012.3 0.0
15/06:00pm 11.3 6.4 5.2 66 2.8 WNW 20 30 11 16 1012.0 1012.0 0.0
15/05:30pm 12.1 6.1 5.3 63 3.2 W 26 32 14 17 1011.6 1011.6 0.0
15/05:00pm 13.0 6.2 4.9 58 3.8 W 30 37 16 20 1011.3 1011.3 0.0
15/04:30pm 13.9 4.9 4.5 53 4.4 W 41 52 22 28 1010.9 1010.9 0.0
15/04:17pm 13.8 5.8 3.9 51 4.5 W 35 54 19 29 1010.7 1010.7 0.0
15/04:00pm 14.1 6.2 4.4 52 4.5 W 35 52 19 28 1010.7 1010.7 0.0
15/03:30pm 14.4 5.8 4.7 52 4.5 W 39 50 21 27 1010.4 1010.4 0.0
15/03:00pm 14.7 4.0 4.4 50 4.8 W 50 69 27 37 1010.1 1010.1 0.0
15/02:30pm 12.5 3.2 7.4 71 2.5 W 46 67 25 36 1010.1 1010.1 0.0
15/02:03pm 15.3 5.8 4.7 49 5.0 W 44 63 24 34 1009.6 1009.5 0.0
15/02:00pm 14.8 5.7 4.2 49 4.9 W 41 56 22 30 1009.6 1009.5 0.0
15/01:41pm 15.7 5.0 4.4 47 5.3 W 50 74 27 40 1009.4 1009.3 0.0
15/01:30pm 14.9 4.9 4.3 49 4.9 W 46 63 25 34 1009.4 1009.3 0.0
15/01:08pm 15.1 3.1 3.9 47 5.2 W 56 76 30 41 1009.3 1009.2 0.0
15/01:00pm 14.3 3.5 4.3 51 4.6 W 50 67 27 36 1009.3 1009.2 0.0

Other Formats:

Comma delimited format used in spreadsheet applications
http://www.bom.gov.au/fwo/IDW60801/IDW60801.95638.axf

JavaScript Object Notation format (JSON) in row-major order
http://www.bom.gov.au/fwo/IDW60801/IDW60801.95638.json